createdAt,value
2018-08-22T00:01:23.480Z,17.45
2018-08-22T00:03:53.877Z,17.38
2018-08-22T00:06:23.974Z,17.23
2018-08-22T00:08:54.340Z,17.17
2018-08-22T00:11:24.539Z,17.16
2018-08-22T00:13:55.026Z,17.13
2018-08-22T00:16:25.209Z,17.11
2018-08-22T00:18:55.540Z,17.36
2018-08-22T00:21:25.756Z,17.26
2018-08-22T00:23:56.068Z,17.10
2018-08-22T00:26:26.340Z,17.16
2018-08-22T00:28:56.716Z,17.17
2018-08-22T00:31:27.000Z,17.22
2018-08-22T00:33:57.383Z,16.98
2018-08-22T00:36:27.630Z,16.77
2018-08-22T00:38:58.187Z,16.90
2018-08-22T00:41:28.417Z,16.83
2018-08-22T00:43:58.614Z,16.93
2018-08-22T00:46:28.937Z,16.81
2018-08-22T00:48:59.298Z,16.98
2018-08-22T00:51:29.572Z,16.94
2018-08-22T00:54:00.222Z,16.74
2018-08-22T00:56:30.486Z,16.78
2018-08-22T00:59:00.745Z,16.99
2018-08-22T01:01:33.355Z,16.92
2018-08-22T01:04:03.822Z,16.94
2018-08-22T01:06:34.211Z,16.79
2018-08-22T01:09:05.170Z,16.76
2018-08-22T01:11:35.808Z,16.71
2018-08-22T01:14:05.891Z,16.68
2018-08-22T01:16:36.084Z,16.73
2018-08-22T01:19:06.295Z,16.70
2018-08-22T01:21:36.494Z,16.57
2018-08-22T01:24:06.947Z,16.64
2018-08-22T01:26:37.163Z,16.50
2018-08-22T01:29:08.068Z,16.45
2018-08-22T01:31:38.221Z,16.53
2018-08-22T01:34:08.681Z,16.54
2018-08-22T01:36:39.389Z,16.51
2018-08-22T01:39:09.942Z,16.53
2018-08-22T01:41:40.110Z,16.57
2018-08-22T01:44:10.346Z,16.44
2018-08-22T01:46:40.549Z,16.32
2018-08-22T01:49:10.687Z,16.28
2018-08-22T01:51:40.994Z,16.28
2018-08-22T01:54:11.329Z,16.34
2018-08-22T01:56:41.963Z,16.27
2018-08-22T01:59:12.392Z,16.15
2018-08-22T02:01:42.754Z,16.13
2018-08-22T02:04:12.982Z,16.29
2018-08-22T02:06:43.375Z,16.12
2018-08-22T02:09:13.574Z,16.14
2018-08-22T02:11:43.778Z,16.31
2018-08-22T02:14:14.394Z,16.11
2018-08-22T02:16:44.647Z,16.18
2018-08-22T02:19:14.937Z,16.05
2018-08-22T02:21:45.226Z,16.12
2018-08-22T02:24:15.442Z,16.10
2018-08-22T02:26:45.771Z,16.22
2018-08-22T02:29:16.116Z,16.05
2018-08-22T02:31:46.660Z,16.00
2018-08-22T02:34:17.088Z,15.86
2018-08-22T02:36:47.366Z,15.69
2018-08-22T02:39:17.699Z,15.93
2018-08-22T02:41:47.815Z,15.83
2018-08-22T02:44:18.146Z,15.77
2018-08-22T02:46:48.469Z,15.66
2018-08-22T02:49:18.728Z,15.84
2018-08-22T02:52:05.573Z,15.75
2018-08-22T02:54:35.694Z,15.66
2018-08-22T02:57:05.934Z,15.70
2018-08-22T02:59:36.040Z,15.66
2018-08-22T03:02:06.743Z,15.63
2018-08-22T03:04:37.049Z,15.65
2018-08-22T03:07:07.214Z,15.23
2018-08-22T03:09:37.448Z,15.15
2018-08-22T03:12:08.094Z,15.09
2018-08-22T03:14:38.377Z,14.89
2018-08-22T03:17:08.693Z,14.98
2018-08-22T03:19:38.935Z,15.25
2018-08-22T03:22:09.548Z,15.31
2018-08-22T03:24:39.885Z,15.21
2018-08-22T03:27:10.084Z,15.18
2018-08-22T03:29:40.665Z,15.18
2018-08-22T03:32:10.930Z,15.30
2018-08-22T03:34:41.156Z,15.12
2018-08-22T03:37:11.370Z,15.14
2018-08-22T03:39:41.636Z,15.09
2018-08-22T03:42:11.919Z,15.19
2018-08-22T03:44:42.647Z,15.16
2018-08-22T03:47:12.823Z,15.08
2018-08-22T03:49:43.019Z,14.99
2018-08-22T03:52:13.497Z,15.18
2018-08-22T03:54:51.764Z,15.12
2018-08-22T03:57:24.023Z,15.05
2018-08-22T03:59:54.701Z,14.93
2018-08-22T04:02:25.179Z,14.99
2018-08-22T04:04:56.075Z,14.91
2018-08-22T04:07:26.358Z,14.92
2018-08-22T04:09:56.716Z,14.89
2018-08-22T04:12:27.060Z,14.89
2018-08-22T04:14:57.604Z,14.95
2018-08-22T04:17:33.692Z,15.00
2018-08-22T04:20:04.047Z,14.93
2018-08-22T04:22:34.641Z,14.99
2018-08-22T04:25:04.943Z,14.96
2018-08-22T04:27:35.555Z,15.02
2018-08-22T04:30:06.160Z,14.94
2018-08-22T04:32:36.477Z,14.86
2018-08-22T04:35:06.876Z,14.84
2018-08-22T04:37:37.470Z,14.67
2018-08-22T04:40:07.838Z,14.77
2018-08-22T04:42:38.215Z,14.77
2018-08-22T04:45:11.407Z,14.88
2018-08-22T04:47:41.804Z,14.93
2018-08-22T04:50:12.194Z,14.86
2018-08-22T04:52:43.355Z,14.85
2018-08-22T04:55:14.024Z,14.83
2018-08-22T04:57:44.457Z,14.98
2018-08-22T05:00:17.987Z,15.06
2018-08-22T05:02:48.463Z,15.10
2018-08-22T05:05:18.824Z,15.14
2018-08-22T05:07:49.163Z,15.18
2018-08-22T05:10:19.472Z,15.20
2018-08-22T05:12:50.186Z,15.20
2018-08-22T05:15:22.249Z,15.30
2018-08-22T05:17:52.629Z,15.59
2018-08-22T05:20:26.530Z,15.54
2018-08-22T05:22:56.889Z,15.46
2018-08-22T05:25:29.815Z,15.42
2018-08-22T05:28:02.880Z,15.45
2018-08-22T05:30:33.451Z,15.61
2018-08-22T05:33:04.561Z,15.79
2018-08-22T05:35:37.786Z,16.00
2018-08-22T05:38:10.424Z,16.04
2018-08-22T05:40:42.343Z,15.94
2018-08-22T05:43:14.493Z,16.14
2018-08-22T05:45:45.285Z,16.22
2018-08-22T05:48:15.847Z,16.33
2018-08-22T05:50:46.155Z,16.57
2018-08-22T05:53:19.222Z,16.81
2018-08-22T05:55:49.753Z,16.86
2018-08-22T05:58:20.256Z,16.87
2018-08-22T06:00:50.524Z,16.68
2018-08-22T06:03:21.005Z,16.90
2018-08-22T06:05:51.451Z,17.11
2018-08-22T06:08:21.963Z,17.27
2018-08-22T06:10:52.551Z,17.33
2018-08-22T06:13:22.648Z,17.40
2018-08-22T06:15:52.856Z,17.59
2018-08-22T06:18:23.553Z,17.68
2018-08-22T06:20:53.785Z,18.01
2018-08-22T06:23:23.924Z,18.04
2018-08-22T06:25:54.222Z,18.14
2018-08-22T06:28:24.507Z,18.40
2018-08-22T06:30:55.745Z,18.56
2018-08-22T06:33:26.321Z,18.60
2018-08-22T06:35:56.912Z,18.95
2018-08-22T06:38:27.099Z,19.41
2018-08-22T06:40:57.506Z,19.39
2018-08-22T06:43:27.753Z,19.43
2018-08-22T06:45:58.452Z,19.32
2018-08-22T06:48:28.926Z,19.42
2018-08-22T06:50:59.359Z,19.52
2018-08-22T06:53:29.653Z,19.75
2018-08-22T06:56:00.024Z,19.85
2018-08-22T06:58:30.888Z,19.80
2018-08-22T07:01:20.646Z,19.98
2018-08-22T07:04:01.476Z,20.24
2018-08-22T07:06:33.013Z,20.28
2018-08-22T07:09:03.969Z,20.21
2018-08-22T07:11:35.049Z,20.09
2018-08-22T07:14:05.555Z,20.55
2018-08-22T07:16:35.835Z,20.31
2018-08-22T07:19:14.410Z,20.37
2018-08-22T07:21:51.397Z,20.64
2018-08-22T07:24:22.472Z,20.89
2018-08-22T07:26:53.037Z,21.09
2018-08-22T07:29:23.358Z,21.30
2018-08-22T07:31:53.744Z,21.46
2018-08-22T07:34:24.683Z,21.54
2018-08-22T07:36:56.153Z,21.67
2018-08-22T07:39:26.714Z,21.75
2018-08-22T07:41:57.092Z,21.91
2018-08-22T07:44:27.329Z,21.95
2018-08-22T07:46:57.660Z,22.03
2018-08-22T07:49:28.211Z,22.05
2018-08-22T07:51:59.134Z,22.22
2018-08-22T07:54:40.037Z,22.19
2018-08-22T07:57:10.636Z,21.77
2018-08-22T07:59:41.150Z,22.02
2018-08-22T08:02:11.566Z,22.22
2018-08-22T08:04:42.009Z,22.55
2018-08-22T08:07:13.185Z,22.60
2018-08-22T08:09:43.352Z,22.83
2018-08-22T08:12:13.737Z,23.03
2018-08-22T08:14:45.708Z,23.06
2018-08-22T08:17:16.307Z,22.64
2018-08-22T08:19:46.675Z,22.84
2018-08-22T08:22:17.375Z,23.26
2018-08-22T08:24:47.828Z,23.14
2018-08-22T08:27:18.448Z,23.40
2018-08-22T08:29:49.143Z,23.36
2018-08-22T08:32:20.587Z,23.67
2018-08-22T08:34:51.102Z,23.44
2018-08-22T08:37:21.438Z,23.80
2018-08-22T08:39:51.910Z,23.77
2018-08-22T08:42:22.745Z,24.10
2018-08-22T08:44:53.316Z,24.45
2018-08-22T08:47:24.636Z,24.57
2018-08-22T08:49:55.035Z,24.80
2018-08-22T08:52:26.613Z,24.65
2018-08-22T08:54:58.998Z,24.88
2018-08-22T08:57:30.185Z,25.05
2018-08-22T09:00:02.326Z,25.10
2018-08-22T09:02:33.543Z,25.37
2018-08-22T09:05:05.815Z,25.52
2018-08-22T09:07:36.888Z,25.35
2018-08-22T09:10:07.944Z,25.65
2018-08-22T09:12:39.522Z,25.65
2018-08-22T09:15:09.876Z,25.80
2018-08-22T09:17:40.229Z,25.94
2018-08-22T09:20:10.632Z,26.01
2018-08-22T09:22:42.001Z,25.91
2018-08-22T09:25:12.574Z,26.07
2018-08-22T09:27:43.754Z,26.03
2018-08-22T09:30:14.962Z,26.26
2018-08-22T09:32:45.611Z,25.92
2018-08-22T09:35:16.049Z,26.21
2018-08-22T09:37:46.411Z,26.31
2018-08-22T09:40:20.090Z,26.67
2018-08-22T09:42:53.204Z,26.94
2018-08-22T09:45:24.279Z,27.01
2018-08-22T09:47:54.820Z,27.06
2018-08-22T09:50:25.273Z,27.16
2018-08-22T09:52:55.770Z,27.40
2018-08-22T09:55:26.381Z,27.29
2018-08-22T09:57:57.253Z,27.73
2018-08-22T10:00:33.717Z,28.03
2018-08-22T10:03:05.855Z,27.91
2018-08-22T10:05:36.131Z,28.45
2018-08-22T10:08:07.703Z,27.63
2018-08-22T10:10:39.796Z,28.33
2018-08-22T10:13:11.662Z,28.46
2018-08-22T10:15:42.637Z,28.71
2018-08-22T10:18:14.858Z,28.60
2018-08-22T10:20:45.312Z,28.62
2018-08-22T10:23:15.677Z,28.28
2018-08-22T10:25:46.098Z,28.47
2018-08-22T10:28:16.384Z,28.55
2018-08-22T10:30:46.606Z,27.88
2018-08-22T10:33:16.963Z,27.78
2018-08-22T10:35:47.516Z,26.96
2018-08-22T10:38:17.754Z,27.40
2018-08-22T10:40:48.216Z,27.66
2018-08-22T10:43:18.601Z,27.69
2018-08-22T10:45:57.796Z,27.46
2018-08-22T10:48:29.794Z,27.72
2018-08-22T10:51:00.481Z,28.08
2018-08-22T10:53:31.115Z,27.84
2018-08-22T10:56:01.991Z,27.27
2018-08-22T10:58:33.180Z,27.13
2018-08-22T11:01:04.088Z,27.02
2018-08-22T11:03:35.438Z,26.72
2018-08-22T11:06:06.168Z,26.76
2018-08-22T11:08:36.477Z,26.89
2018-08-22T11:11:07.066Z,27.25
2018-08-22T11:13:37.649Z,27.57
2018-08-22T11:16:08.009Z,27.48
2018-08-22T11:18:38.428Z,27.02
2018-08-22T11:21:19.589Z,26.52
2018-08-22T11:24:00.576Z,26.77
2018-08-22T11:26:41.726Z,27.20
2018-08-22T11:29:23.083Z,27.00
2018-08-22T11:32:04.816Z,26.83
2018-08-22T11:34:45.746Z,26.93
2018-08-22T11:37:17.264Z,27.27
2018-08-22T11:39:49.311Z,27.45
2018-08-22T11:42:20.044Z,27.61
2018-08-22T11:44:50.604Z,27.56
2018-08-22T11:47:21.074Z,27.61
2018-08-22T11:49:51.859Z,27.38
2018-08-22T11:52:22.093Z,27.23
2018-08-22T11:54:52.640Z,27.38
2018-08-22T11:57:23.984Z,27.36
2018-08-22T11:59:54.368Z,27.63
2018-08-22T12:02:24.929Z,27.70
2018-08-22T12:04:55.405Z,27.81
2018-08-22T12:07:26.336Z,28.04
2018-08-22T12:09:57.272Z,27.99
2018-08-22T12:12:28.045Z,28.21
2018-08-22T12:14:58.639Z,28.43
2018-08-22T12:17:29.024Z,28.06
2018-08-22T12:19:59.443Z,28.01
2018-08-22T12:22:29.940Z,28.08
2018-08-22T12:25:00.781Z,28.20
2018-08-22T12:27:31.355Z,27.81
2018-08-22T12:30:02.118Z,27.48
2018-08-22T12:32:32.540Z,27.78
2018-08-22T12:35:03.452Z,27.78
2018-08-22T12:37:33.977Z,27.81
2018-08-22T12:40:04.713Z,27.88
2018-08-22T12:42:35.077Z,28.28
2018-08-22T12:45:08.828Z,27.91
2018-08-22T12:47:40.610Z,27.94
2018-08-22T12:50:17.024Z,28.06
2018-08-22T12:52:47.872Z,28.41
2018-08-22T12:55:18.207Z,28.25
2018-08-22T12:57:48.652Z,28.74
2018-08-22T13:00:18.995Z,28.79
2018-08-22T13:02:49.444Z,28.53
2018-08-22T13:05:22.575Z,28.59
2018-08-22T13:07:54.240Z,28.32
2018-08-22T13:10:27.927Z,28.23
2018-08-22T13:12:58.374Z,28.37
2018-08-22T13:15:28.975Z,28.24
2018-08-22T13:17:59.760Z,28.42
2018-08-22T13:20:30.252Z,29.01
2018-08-22T13:23:05.812Z,29.22
2018-08-22T13:25:36.218Z,29.07
2018-08-22T13:28:07.564Z,29.35
2018-08-22T13:30:38.848Z,29.06
2018-08-22T13:33:11.155Z,29.29
2018-08-22T13:35:41.792Z,29.52
2018-08-22T13:38:13.467Z,28.83
2018-08-22T13:40:44.442Z,29.30
2018-08-22T13:43:16.615Z,29.85
2018-08-22T13:45:47.269Z,29.95
2018-08-22T13:48:17.671Z,29.90
2018-08-22T13:50:48.840Z,29.28
2018-08-22T13:53:20.375Z,29.26
2018-08-22T13:55:50.860Z,29.46
2018-08-22T13:58:21.385Z,30.23
2018-08-22T14:00:52.271Z,30.18
2018-08-22T14:03:22.731Z,30.15
2018-08-22T14:05:52.847Z,30.77
2018-08-22T14:08:23.157Z,30.08
2018-08-22T14:10:54.869Z,30.22
2018-08-22T14:13:26.171Z,29.98
2018-08-22T14:15:56.799Z,30.38
2018-08-22T14:18:27.102Z,31.04
2018-08-22T14:20:58.047Z,31.29
2018-08-22T14:23:28.427Z,31.14
2018-08-22T14:25:58.956Z,31.01
2018-08-22T14:28:29.769Z,30.60
2018-08-22T14:31:00.607Z,30.83
2018-08-22T14:33:31.430Z,30.40
2018-08-22T14:36:02.083Z,30.28
2018-08-22T14:38:32.547Z,30.47
2018-08-22T14:41:03.135Z,30.34
2018-08-22T14:43:33.524Z,30.63
2018-08-22T14:46:05.580Z,30.63
2018-08-22T14:48:43.295Z,30.39
2018-08-22T14:51:14.079Z,30.27
2018-08-22T14:53:44.331Z,30.40
2018-08-22T14:56:14.726Z,30.20
2018-08-22T14:58:45.353Z,30.09
2018-08-22T15:01:16.791Z,29.79
2018-08-22T15:03:47.485Z,30.26
2018-08-22T15:06:17.889Z,30.35
2018-08-22T15:08:48.394Z,29.85
2018-08-22T15:11:19.422Z,29.95
2018-08-22T15:13:49.760Z,30.22
2018-08-22T15:16:20.172Z,30.13
2018-08-22T15:18:50.593Z,30.41
2018-08-22T15:21:21.223Z,30.69
2018-08-22T15:23:52.429Z,30.81
2018-08-22T15:26:22.750Z,30.96
2018-08-22T15:28:53.767Z,30.75
2018-08-22T15:31:24.449Z,30.47
2018-08-22T15:33:54.959Z,30.51
2018-08-22T15:36:25.584Z,30.69
2018-08-22T15:38:55.967Z,30.42
2018-08-22T15:41:26.613Z,30.35
2018-08-22T15:43:57.115Z,30.45
2018-08-22T15:46:27.755Z,30.52
2018-08-22T15:48:59.015Z,30.00
2018-08-22T15:51:29.689Z,29.79
2018-08-22T15:54:09.711Z,29.66
2018-08-22T15:56:41.619Z,29.97
2018-08-22T15:59:13.447Z,30.12
2018-08-22T16:01:44.057Z,29.75
2018-08-22T16:04:15.549Z,29.95
2018-08-22T16:06:46.162Z,29.70
2018-08-22T16:09:21.589Z,29.54
2018-08-22T16:11:53.905Z,29.48
2018-08-22T16:14:33.012Z,29.35
2018-08-22T16:17:08.838Z,29.35
2018-08-22T16:19:39.951Z,29.15
2018-08-22T16:22:13.119Z,29.15
2018-08-22T16:24:43.964Z,29.42
2018-08-22T16:27:14.224Z,29.34
2018-08-22T16:29:44.765Z,29.03
2018-08-22T16:32:14.967Z,28.93
2018-08-22T16:34:45.684Z,29.13
2018-08-22T16:37:16.770Z,29.25
2018-08-22T16:39:48.805Z,29.32
2018-08-22T16:42:24.931Z,29.13
2018-08-22T16:44:56.395Z,29.01
2018-08-22T16:47:31.859Z,28.86
2018-08-22T16:50:07.596Z,28.83
2018-08-22T16:52:38.313Z,28.72
2018-08-22T16:55:22.788Z,28.63
2018-08-22T16:57:54.155Z,28.53
2018-08-22T17:00:35.976Z,28.43
2018-08-22T17:03:09.721Z,28.38
2018-08-22T17:05:40.176Z,28.37
2018-08-22T17:08:12.609Z,28.34
2018-08-22T17:10:55.187Z,28.34
2018-08-22T17:13:31.481Z,28.27
2018-08-22T17:16:03.137Z,28.09
2018-08-22T17:18:33.911Z,28.02
2018-08-22T17:21:04.648Z,28.07
2018-08-22T17:23:35.222Z,27.82
2018-08-22T17:26:06.094Z,27.83
2018-08-22T17:28:39.736Z,27.72
2018-08-22T17:31:10.994Z,27.59
2018-08-22T17:33:46.233Z,27.61
2018-08-22T17:36:17.024Z,27.59
2018-08-22T17:38:48.852Z,27.32
2018-08-22T17:41:21.016Z,27.11
2018-08-22T17:44:18.940Z,27.02
2018-08-22T17:46:51.731Z,26.79
2018-08-22T17:49:23.366Z,26.70
2018-08-22T17:52:01.405Z,26.59
2018-08-22T17:54:33.371Z,26.41
2018-08-22T17:57:22.697Z,26.43
2018-08-22T17:59:54.873Z,26.46
2018-08-22T18:02:25.609Z,26.51
2018-08-22T18:05:07.080Z,26.44
2018-08-22T18:07:38.053Z,26.38
2018-08-22T18:10:08.891Z,26.31
2018-08-22T18:12:40.329Z,26.07
2018-08-22T18:15:10.810Z,25.90
2018-08-22T18:17:42.281Z,25.67
2018-08-22T18:20:12.875Z,25.78
2018-08-22T18:22:43.560Z,25.75
2018-08-22T18:25:14.096Z,25.70
2018-08-22T18:27:45.096Z,25.70
2018-08-22T18:30:15.631Z,25.55
2018-08-22T18:32:46.826Z,25.60
2018-08-22T18:35:22.048Z,25.41
2018-08-22T18:55:20.438Z,25.25
2018-08-22T18:57:51.089Z,25.15
2018-08-22T19:00:22.835Z,24.91
2018-08-22T19:02:55.193Z,24.97
2018-08-22T19:05:30.182Z,25.05
2018-08-22T19:08:08.676Z,25.07
2018-08-22T19:10:47.286Z,24.32
2018-08-22T19:13:19.776Z,24.22
2018-08-22T19:15:52.108Z,23.82
2018-08-22T19:18:22.548Z,23.62
2018-08-22T19:20:59.098Z,23.61
2018-08-22T19:23:31.561Z,23.82
2018-08-22T19:26:04.144Z,23.32
2018-08-22T19:28:53.491Z,23.48
2018-08-22T19:31:25.630Z,23.32
2018-08-22T19:34:00.457Z,23.26
2018-08-22T19:36:31.172Z,23.27
2018-08-22T19:39:01.759Z,22.91
2018-08-22T19:41:36.179Z,22.98
2018-08-22T19:44:07.622Z,22.73
2018-08-22T19:46:39.563Z,22.77
2018-08-22T19:49:10.298Z,22.74
2018-08-22T19:51:40.714Z,22.32
2018-08-22T19:54:11.006Z,22.55
2018-08-22T19:56:41.724Z,22.23
2018-08-22T19:59:13.778Z,22.64
2018-08-22T20:01:44.837Z,22.06
2018-08-22T20:04:16.421Z,22.05
2018-08-22T20:06:47.210Z,22.09
2018-08-22T20:09:18.016Z,21.86
2018-08-22T20:11:48.871Z,21.72
2018-08-22T20:14:19.469Z,21.57
2018-08-22T20:16:51.303Z,21.26
2018-08-22T20:19:22.496Z,20.84
2018-08-22T20:21:53.395Z,20.92
2018-08-22T20:24:25.192Z,21.12
2018-08-22T20:27:01.280Z,21.34
2018-08-22T20:29:32.429Z,21.44
2018-08-22T20:32:04.497Z,21.26
2018-08-22T20:34:35.192Z,21.74
2018-08-22T20:37:06.267Z,21.41
2018-08-22T20:39:36.850Z,21.54
2018-08-22T20:42:11.789Z,21.43
2018-08-22T20:44:44.170Z,21.31
2018-08-22T20:47:14.972Z,21.35
2018-08-22T20:49:47.352Z,21.03
2018-08-22T20:52:19.311Z,20.89
2018-08-22T20:54:56.555Z,20.80
2018-08-22T20:57:28.411Z,20.50
2018-08-22T20:59:59.443Z,20.36
2018-08-22T21:02:30.735Z,20.61
2018-08-22T21:05:02.559Z,20.57
2018-08-22T21:07:38.809Z,20.62
2018-08-22T21:10:09.683Z,20.53
2018-08-22T21:12:40.682Z,20.65
2018-08-22T21:15:13.740Z,20.47
2018-08-22T21:17:45.371Z,20.45
2018-08-22T21:20:21.246Z,20.26
2018-08-22T21:22:52.643Z,20.34
2018-08-22T21:25:23.654Z,20.14
2018-08-22T21:27:54.923Z,20.22
2018-08-22T21:30:25.557Z,20.05
2018-08-22T21:32:56.164Z,20.10
2018-08-22T21:35:28.206Z,20.12
2018-08-22T21:38:20.724Z,19.93
2018-08-22T21:40:51.435Z,19.81
2018-08-22T21:43:23.102Z,19.66
2018-08-22T21:45:55.661Z,19.86
2018-08-22T21:48:27.872Z,19.71
2018-08-22T21:50:59.662Z,19.99
2018-08-22T21:53:32.688Z,19.65
2018-08-22T21:56:04.488Z,19.73
2018-08-22T21:58:35.312Z,19.94
2018-08-22T22:01:08.535Z,20.09
2018-08-22T22:03:40.678Z,20.08
2018-08-22T22:06:11.355Z,20.03
2018-08-22T22:08:46.398Z,20.00
2018-08-22T22:11:22.991Z,19.86
2018-08-22T22:13:59.137Z,19.78
2018-08-22T22:16:32.120Z,19.53
2018-08-22T22:19:02.966Z,19.35
2018-08-22T22:21:33.812Z,19.54
2018-08-22T22:24:04.940Z,19.66
2018-08-22T22:26:35.629Z,19.57
2018-08-22T22:29:06.466Z,19.51
2018-08-22T22:31:37.191Z,19.69
2018-08-22T22:34:07.995Z,19.50
2018-08-22T22:36:38.380Z,19.25
2018-08-22T22:39:23.284Z,19.23
2018-08-22T22:41:54.064Z,19.21
2018-08-22T22:44:24.629Z,19.26
2018-08-22T22:46:55.155Z,19.19
2018-08-22T22:49:25.647Z,19.36
2018-08-22T22:51:56.425Z,19.35
2018-08-22T22:54:36.322Z,19.09
2018-08-22T22:57:06.488Z,19.27
2018-08-22T22:59:37.036Z,19.18
2018-08-22T23:02:07.602Z,19.05
2018-08-22T23:04:46.278Z,18.81
2018-08-22T23:07:26.290Z,18.95
2018-08-22T23:10:00.588Z,18.87
2018-08-22T23:12:47.866Z,19.03
2018-08-22T23:15:26.670Z,18.74
2018-08-22T23:17:58.869Z,18.89
2018-08-22T23:20:33.511Z,18.91
2018-08-22T23:23:17.123Z,18.92
2018-08-22T23:25:47.542Z,18.87
2018-08-22T23:28:17.978Z,18.63
2018-08-22T23:30:48.471Z,18.29
2018-08-22T23:33:19.146Z,18.41
2018-08-22T23:35:49.632Z,18.29
2018-08-22T23:38:27.413Z,18.54
2018-08-22T23:40:58.011Z,18.41
2018-08-22T23:43:34.636Z,18.21
2018-08-22T23:46:06.656Z,18.48
2018-08-22T23:48:37.633Z,18.20
2018-08-22T23:51:09.985Z,17.95
2018-08-22T23:53:48.887Z,17.99
2018-08-22T23:56:34.089Z,18.43
2018-08-22T23:59:04.455Z,18.45
